Contact Us:
Email: info@sawbill.com
Phone: (218)663-7150
Fax: (218)663-7980
Mail: 4620 Sawbill Trail
Box 2129
Tofte, MN 55615


Powered by
Movable Type 3.15
 
Sawbill Weather History Archives: May 2014
Current Sawbill Weather History | « April 2014 | June 2014 »


Date

High
Temperature

Low
Temperature

Barometric
Pressure

Relative
Humidity 7AM

9 AM
Temperature

Moisture

Snow

5/31/14 71 57 29.98 98% 60 .37"
5/30/14 80 50 30.12 65% 57 0
5/29/14 81 46 30.16 55% 50 0
5/28/14 72 41 30.14 68% 45 0
5/27/14 71 40 30.14 59% 52 0
5/26/14 76 44 30.04 59% 51 0
5/25/14 81 55 30.00 74% 63 0
5/24/14 78 42 30.10 60% 55 0
5/23/14 67 38 30.18 67% 42 0
5/22/14 60 38 30.20 74% 38 0
5/21/14 57 46 30.14 88% 46 .06"
5/20/14 59 46 29.98 96% 48 1.1"
5/19/14 61 42 29.96 98% 46 .97"
5/18/14 64 42 30.08 68% 42 0
5/17/14 59 32 30.04 66% 43 0
5/16/14 47 30 30.02 66% 32 0
5/15/14 42 30 30.08 68% 33 Trace Trace
5/14/14 43 35 30.16 66% 36 0
5/13/06 48 34 30.12 50% 39 0
5/12/14 45 39 29.92 98% 39 .49"
5/11/14 65 42 30.02 72% 43 .05"
5/10/14 62 35 30.04 44% 57 0
5/9/14 52 35 29.96 99% 37 .16"
5/8/14 59 41 30.02 99% 43 .43"
5/7/14 58 41 29.96 97% 41 .33"
5/6/14 46 35 29.92 44% 45 0
5/5/14 46 30 30.10 79% 35 0
5/4/14 46 33 30.12 79% 35 Trace Trace
5/3/14 47 32 30.06 81% 33 .03" Trace
5/2/14 48 36 29.84 89% 36 .18"
5/1/14 40 36 29.86 89% 38 Trace
 


Home I Trip Planning I Rentals and Outfitting I Reservations I Campgrounds I Sawbill Store I Sawbill News I Contact

© 1997 - 2017, Sawbill Canoe Outfitters, Inc. I Privacy Policy